Flight Track Log - Related Links

Times and Time Zones

All times are in EDT time to prevent confusion due to time zone crossing. See the UAL252 flight status page for this flight to view local times or setup timezone preferences in your user account.

Time Position Orientation Groundspeed Altitude Reporting Facility
EDT Latitude Longitude Course Direction KTS MPH feet Rate Location/Type
Wed 06:27:38 AM 40.7000 -74.1500 51° Northeast 160 184 1,100  Level New York TRACON
Wed 06:28:38 AM 40.7500 -74.1167 27° Northeast 209 241 3,000 2,537 Climbing New York TRACON
Wed 06:30:00 AM 40.8416 -73.9250 37° Northeast  Level FlightAware Approximate
Wed 06:30:59 AM 40.8397 -73.9433 56° Northeast 250 288 9,600  Level Boston Center
Wed 06:31:00 AM 40.8960 -73.8490 47° Northeast  Level FlightAware Approximate
Wed 06:32:00 AM 40.9532 -73.7688 47° Northeast  Level FlightAware Approximate
Wed 06:32:01 AM 40.8972 -73.8569 49° Northeast 277 319 11,100  Level Boston Center
Wed 06:32:59 AM 40.9692 -73.7569 46° Northeast 334 384 13,300 2,410 Climbing Boston Center
Wed 06:33:00 AM 41.0075 -73.6821 51° Northeast  Level FlightAware Approximate
Wed 06:33:58 AM 41.0206 -73.6342 61° Northeast 369 425 15,800  Level Boston Center
Wed 06:34:58 AM 41.0594 -73.5081 68° East 396 456 17,600 1,785 Climbing Boston Center
Wed 06:35:59 AM 41.1150 -73.3492 65° Northeast 413 475 19,400 1,686 Climbing Boston Center
Wed 06:36:59 AM 41.1578 -73.2175 67° East 418 481 21,000 793 Climbing Boston Center
Wed 06:38:00 AM 41.2044 -73.0692 67° East 423 487 21,000  Level Boston Center
Wed 06:39:00 AM 41.2531 -72.9178 67° East 434 499 21,000  Level Boston Center
Wed 06:39:58 AM 41.3058 -72.7661 65° Northeast 434 499 21,000  Level Boston Center
Wed 06:40:58 AM 41.3542 -72.6144 67° East 439 505 21,000  Level Boston Center
Wed 06:41:59 AM 41.4000 -72.4622 68° East 439 505 21,000  Level Boston Center
Wed 06:42:58 AM 41.4500 -72.3072 67° East 439 505 21,000  Level Boston Center
Wed 06:43:59 AM 41.4997 -72.1547 66° East 438 504 21,000  Level Boston Center
Wed 06:45:00 AM 41.5492 -71.9964 67° East 444 511 21,000 -295 Level Boston Center
Wed 06:46:01 AM 41.5986 -71.8378 67° East 457 526 20,400 -1,160 Descending Boston Center
Wed 06:46:59 AM 41.6494 -71.6678 68° East 452 520 18,700 -1,949 Descending Boston Center
Wed 06:47:58 AM 41.6964 -71.5169 67° East 452 520 16,600 -2,118 Descending Boston Center
Wed 06:48:58 AM 41.7411 -71.3939 64° Northeast 420 483 14,500 -2,250 Descending Boston Center
Wed 06:49:58 AM 41.8022 -71.2508 60° Northeast 403 464 12,100 -1,700 Descending Boston Center
Wed 06:50:58 AM 41.8489 -71.1414 60° Northeast 377 434 11,100 -992 Descending Boston Center
Wed 06:51:59 AM 41.8997 -71.0233 60° Northeast 342 394 10,100 -900 Descending Boston Center
Wed 06:52:58 AM 41.9403 -70.9358 58° Northeast 312 359 9,300 -1,109 Descending Boston Center
Wed 06:53:58 AM 41.9994 -70.8506 47° Northeast 287 330 7,900 -1,279 Descending Boston Center
Wed 06:55:00 AM 42.0508 -70.7906 41° Northeast 276 318 6,700 -1,082 Descending Boston Center
Wed 06:56:00 AM 42.1081 -70.7247 40° Northeast 276 318 5,700 -800 Descending Boston Center
Wed 06:57:00 AM 42.1625 -70.7286 357° North 212 244 5,100 -700 Descending Boston Center
Wed 06:58:00 AM 42.1986 -70.7839 311° West 176 203 4,300 -915 Descending Boston Center
Wed 06:58:58 AM 42.2347 -70.8306 316° Northwest 176 203 3,300 -1,008 Descending Boston Center
Wed 06:59:59 AM 42.2708 -70.8828 313° West 171 197 2,300 -885 Descending Boston Center
Wed 07:01:00 AM 42.3006 -70.9214 316° Northwest 171 197 1,500 -807 Descending Boston Center
Wed 07:01:58 AM 42.3325 -70.9600 318° Northwest 138 159 700 -828 Descending Boston Center
Wed 07:04:00 AM 42.3500 -71.0000 304° West  Level FlightAware Approximate
Wed 07:11:00 AM 42.3630 -71.0064 304° West  Level Estimated

Login

Don't have an account? Register now (free) for customized features, flight alerts, and more!